createdAt,value
2019-04-01T00:01:51.217Z,102677.84
2019-04-01T00:04:20.118Z,102678.67
2019-04-01T00:06:49.052Z,102674.52
2019-04-01T00:09:17.638Z,102676.00
2019-04-01T00:11:46.258Z,102679.48
2019-04-01T00:14:15.289Z,102689.67
2019-04-01T00:16:44.480Z,102686.12
2019-04-01T00:19:13.107Z,102685.73
2019-04-01T00:21:44.493Z,102689.42
2019-04-01T00:24:12.391Z,102691.69
2019-04-01T00:26:41.277Z,102695.20
2019-04-01T00:29:10.249Z,102695.89
2019-04-01T00:31:38.863Z,102696.53
2019-04-01T00:34:07.916Z,102693.06
2019-04-01T00:36:37.155Z,102699.01
2019-04-01T00:39:07.164Z,102699.64
2019-04-01T00:41:41.704Z,102700.56
2019-04-01T00:44:12.473Z,102709.52
2019-04-01T00:46:41.478Z,102711.56
2019-04-01T00:49:10.410Z,102699.41
2019-04-01T00:51:39.407Z,102702.02
2019-04-01T00:54:08.036Z,102708.52
2019-04-01T00:56:36.983Z,102703.70
2019-04-01T00:59:05.982Z,102706.58
2019-04-01T01:01:34.612Z,102707.44
2019-04-01T01:04:03.265Z,102710.09
2019-04-01T01:06:32.551Z,102706.27
2019-04-01T01:09:01.440Z,102703.91
2019-04-01T01:11:30.370Z,102706.48
2019-04-01T01:13:59.006Z,102706.25
2019-04-01T01:16:28.015Z,102699.67
2019-04-01T01:18:57.246Z,102704.11
2019-04-01T01:21:26.193Z,102702.77
2019-04-01T01:23:55.402Z,102707.55
2019-04-01T01:26:24.061Z,102708.89
2019-04-01T01:28:52.706Z,102711.16
2019-04-01T01:31:21.357Z,102704.87
2019-04-01T01:33:50.668Z,102706.05
2019-04-01T01:36:19.553Z,102709.03
2019-04-01T01:38:48.469Z,102706.48
2019-04-01T01:41:17.094Z,102708.50
2019-04-01T01:43:46.026Z,102708.89
2019-04-01T01:46:15.638Z,102706.94
2019-04-01T01:48:44.830Z,102704.19
2019-04-01T01:51:13.718Z,102700.16
2019-04-01T01:53:43.026Z,102708.97
2019-04-01T01:56:11.892Z,102704.78
2019-04-01T01:58:40.541Z,102700.44
2019-04-01T02:01:09.489Z,102701.12
2019-04-01T02:03:38.115Z,102705.79
2019-04-01T02:06:07.069Z,102712.75
2019-04-01T02:08:35.697Z,102716.61
2019-04-01T02:11:07.001Z,102719.06
2019-04-01T02:13:35.898Z,102713.95
2019-04-01T02:16:04.988Z,102705.16
2019-04-01T02:18:33.716Z,102717.31
2019-04-01T02:21:02.659Z,102720.34
2019-04-01T02:23:32.013Z,102714.16
2019-04-01T02:26:00.858Z,102715.80
2019-04-01T02:28:30.065Z,102710.34
2019-04-01T02:30:59.051Z,102710.66
2019-04-01T02:33:27.949Z,102709.20
2019-04-01T02:35:56.856Z,102713.15
2019-04-01T02:38:25.883Z,102715.86
2019-04-01T02:40:54.825Z,102715.42
2019-04-01T02:43:23.729Z,102716.45
2019-04-01T02:45:52.708Z,102719.95
2019-04-01T02:48:21.584Z,102725.16
2019-04-01T02:50:50.538Z,102726.07
2019-04-01T02:53:19.491Z,102719.05
2019-04-01T02:55:48.588Z,102720.31
2019-04-01T02:58:17.457Z,102729.42
2019-04-01T03:00:46.468Z,102726.75
2019-04-01T03:03:15.078Z,102728.37
2019-04-01T03:05:44.045Z,102730.13
2019-04-01T03:08:12.962Z,102727.96
2019-04-01T03:10:41.918Z,102720.39
2019-04-01T03:13:10.822Z,102722.27
2019-04-01T03:15:39.459Z,102724.17
2019-04-01T03:18:08.498Z,102729.38
2019-04-01T03:20:37.497Z,102726.38
2019-04-01T03:23:06.415Z,102724.66
2019-04-01T03:25:35.047Z,102731.21
2019-04-01T03:28:03.962Z,102734.18
2019-04-01T03:30:32.654Z,102736.17
2019-04-01T03:33:01.655Z,102737.30
2019-04-01T03:35:30.435Z,102737.83
2019-04-01T03:37:59.637Z,102741.80
2019-04-01T03:40:28.524Z,102741.73
2019-04-01T03:42:57.725Z,102738.45
2019-04-01T03:45:26.612Z,102733.94
2019-04-01T03:47:55.510Z,102738.02
2019-04-01T03:50:24.501Z,102745.30
2019-04-01T03:52:53.697Z,102742.00
2019-04-01T03:55:22.584Z,102745.45
2019-04-01T03:57:51.245Z,102747.70
2019-04-01T04:00:20.578Z,102745.03
2019-04-01T04:02:49.574Z,102742.23
2019-04-01T04:05:18.194Z,102748.78
2019-04-01T04:07:47.455Z,102752.02
2019-04-01T04:10:16.450Z,102744.06
2019-04-01T04:12:45.065Z,102746.77
2019-04-01T04:15:14.281Z,102752.33
2019-04-01T04:17:43.534Z,102754.68
2019-04-01T04:20:12.661Z,102757.34
2019-04-01T04:22:41.265Z,102755.23
2019-04-01T04:25:10.316Z,102757.53
2019-04-01T04:27:39.302Z,102758.23
2019-04-01T04:30:08.295Z,102755.55
2019-04-01T04:32:37.285Z,102758.72
2019-04-01T04:35:06.283Z,102757.67
2019-04-01T04:37:35.277Z,102763.58
2019-04-01T04:40:04.271Z,102763.38
2019-04-01T04:42:33.158Z,102761.35
2019-04-01T04:45:02.148Z,102757.47
2019-04-01T04:47:31.057Z,102765.97
2019-04-01T04:50:00.430Z,102765.58
2019-04-01T04:52:29.040Z,102765.19
2019-04-01T04:54:58.332Z,102775.37
2019-04-01T04:57:27.223Z,102776.02
2019-04-01T04:59:56.132Z,102775.36
2019-04-01T05:02:25.200Z,102773.37
2019-04-01T05:04:53.832Z,102778.70
2019-04-01T05:07:22.796Z,102784.70
2019-04-01T05:09:51.405Z,102785.75
2019-04-01T05:12:20.366Z,102773.69
2019-04-01T05:14:48.981Z,102779.42
2019-04-01T05:17:18.253Z,102788.67
2019-04-01T05:19:46.880Z,102786.09
2019-04-01T05:22:16.347Z,102789.44
2019-04-01T05:24:45.541Z,102795.83
2019-04-01T05:27:15.150Z,102799.11
2019-04-01T05:29:44.545Z,102796.11
2019-04-01T05:32:13.954Z,102797.16
2019-04-01T05:34:45.119Z,102795.14
2019-04-01T05:37:14.092Z,102801.97
2019-04-01T05:39:43.396Z,102805.21
2019-04-01T05:42:12.433Z,102795.31
2019-04-01T05:44:41.686Z,102796.06
2019-04-01T05:47:10.685Z,102806.11
2019-04-01T05:49:39.307Z,102809.25
2019-04-01T05:52:08.672Z,102801.42
2019-04-01T05:54:37.673Z,102806.73
2019-04-01T05:57:06.861Z,102818.80
2019-04-01T05:59:35.488Z,102817.02
2019-04-01T06:02:05.058Z,102814.06
2019-04-01T06:04:34.374Z,102818.69
2019-04-01T06:07:03.359Z,102811.97
2019-04-01T06:09:31.972Z,102817.48
2019-04-01T06:12:01.109Z,102816.64
2019-04-01T06:14:30.063Z,102818.24
2019-04-01T06:16:59.014Z,102818.48
2019-04-01T06:19:27.720Z,102812.86
2019-04-01T06:21:56.442Z,102812.22
2019-04-01T06:24:25.374Z,102814.47
2019-04-01T06:26:54.121Z,102811.54
2019-04-01T06:29:23.062Z,102814.10
2019-04-01T06:31:51.959Z,102817.52
2019-04-01T06:34:21.257Z,102815.12
2019-04-01T06:36:50.687Z,102819.33
2019-04-01T06:39:19.652Z,102828.70
2019-04-01T06:41:48.658Z,102821.30
2019-04-01T06:44:17.307Z,102815.63
2019-04-01T06:46:46.225Z,102824.75
2019-04-01T06:49:15.222Z,102822.63
2019-04-01T06:51:44.619Z,102825.00
2019-04-01T06:54:13.238Z,102826.92
2019-04-01T06:56:42.198Z,102828.83
2019-04-01T06:59:10.884Z,102828.59
2019-04-01T07:01:39.810Z,102835.92
2019-04-01T07:04:08.448Z,102834.95
2019-04-01T07:06:37.354Z,102836.00
2019-04-01T07:09:06.722Z,102834.39
2019-04-01T07:11:35.736Z,102836.93
2019-04-01T07:14:05.311Z,102836.00
2019-04-01T07:16:34.294Z,102839.41
2019-04-01T07:19:03.002Z,102837.67
2019-04-01T07:21:31.612Z,102848.33
2019-04-01T07:24:00.925Z,102841.64
2019-04-01T07:26:29.607Z,102855.89
2019-04-01T07:28:58.612Z,102845.34
2019-04-01T07:31:27.808Z,102846.41
2019-04-01T07:33:56.795Z,102847.02
2019-04-01T07:36:25.499Z,102847.02
2019-04-01T07:38:54.543Z,102850.17
2019-04-01T07:41:23.453Z,102849.11
2019-04-01T07:43:52.074Z,102854.27
2019-04-01T07:46:21.054Z,102854.27
2019-04-01T07:48:50.187Z,102854.52
2019-04-01T07:51:19.137Z,102848.77
2019-04-01T07:53:48.296Z,102851.86
2019-04-01T07:56:17.536Z,102846.22
2019-04-01T07:58:46.174Z,102847.19
2019-04-01T08:01:14.805Z,102855.86
2019-04-01T08:03:44.114Z,102849.80
2019-04-01T08:06:13.511Z,102856.65
2019-04-01T08:08:46.121Z,102857.13
2019-04-01T08:11:13.649Z,102857.13
2019-04-01T08:13:42.640Z,102856.78
2019-04-01T08:16:11.633Z,102851.23
2019-04-01T08:18:40.836Z,102854.17
2019-04-01T08:21:09.483Z,102851.90
2019-04-01T08:23:38.827Z,102858.66
2019-04-01T08:26:07.827Z,102858.66
2019-04-01T08:28:36.550Z,102836.45
2019-04-01T08:31:05.596Z,102848.34
2019-04-01T08:33:34.488Z,102846.17
2019-04-01T08:36:03.897Z,102843.69
2019-04-01T08:38:32.884Z,102843.69
2019-04-01T08:41:01.623Z,102844.43
2019-04-01T08:43:30.570Z,102846.16
2019-04-01T08:46:00.014Z,102846.16
2019-04-01T08:48:29.273Z,102836.78
2019-04-01T08:50:58.294Z,102848.94
2019-04-01T08:53:27.568Z,102840.84
2019-04-01T08:56:00.862Z,102843.64
2019-04-01T08:58:27.501Z,102845.27
2019-04-01T09:00:56.491Z,102847.64
2019-04-01T09:03:25.591Z,102839.11
2019-04-01T09:05:54.700Z,102847.91
2019-04-01T09:08:24.431Z,102843.36
2019-04-01T09:10:53.425Z,102839.05
2019-04-01T09:13:22.688Z,102838.04
2019-04-01T09:15:51.750Z,102833.08
2019-04-01T09:18:20.677Z,102826.09
2019-04-01T09:20:49.770Z,102822.50
2019-04-01T09:23:18.402Z,102822.50
2019-04-01T09:25:47.662Z,102821.12
2019-04-01T09:28:16.651Z,102816.61
2019-04-01T09:30:45.548Z,102817.94
2019-04-01T09:33:14.540Z,102818.20
2019-04-01T09:35:43.532Z,102822.11
2019-04-01T09:38:12.420Z,102818.31
2019-04-01T09:40:41.052Z,102804.89
2019-04-01T09:43:13.672Z,102812.27
2019-04-01T09:45:40.644Z,102806.81
2019-04-01T09:48:09.277Z,102806.46
2019-04-01T09:50:38.520Z,102802.37
2019-04-01T09:53:07.268Z,102797.89
2019-04-01T09:55:36.869Z,102799.77
2019-04-01T09:58:06.113Z,102795.44
2019-04-01T10:00:35.414Z,102794.20
2019-04-01T10:03:04.617Z,102796.45
2019-04-01T10:05:33.604Z,102793.52
2019-04-01T10:08:02.501Z,102787.09
2019-04-01T10:10:31.801Z,102775.37
2019-04-01T10:13:00.793Z,102781.71
2019-04-01T10:15:29.791Z,102780.06
2019-04-01T10:17:58.831Z,102780.83
2019-04-01T10:20:27.779Z,102771.69
2019-04-01T10:22:56.423Z,102760.14
2019-04-01T10:25:25.383Z,102763.09
2019-04-01T10:27:54.346Z,102765.72
2019-04-01T10:30:23.239Z,102753.75
2019-04-01T10:32:52.434Z,102754.98
2019-04-01T10:35:21.430Z,102758.20
2019-04-01T10:37:50.061Z,102756.39
2019-04-01T10:40:18.770Z,102750.41
2019-04-01T10:42:47.405Z,102754.97
2019-04-01T10:45:16.790Z,102752.06
2019-04-01T10:47:45.542Z,102742.44
2019-04-01T10:50:14.808Z,102735.41
2019-04-01T10:52:44.183Z,102742.93
2019-04-01T10:55:13.521Z,102731.25
2019-04-01T10:57:43.697Z,102734.83
2019-04-01T11:00:13.272Z,102730.53
2019-04-01T11:02:42.004Z,102733.56
2019-04-01T11:05:11.196Z,102725.01
2019-04-01T11:07:40.130Z,102725.98
2019-04-01T11:10:11.741Z,102721.47
2019-04-01T11:12:40.067Z,102714.02
2019-04-01T11:15:09.472Z,102712.86
2019-04-01T11:17:38.522Z,102717.69
2019-04-01T11:20:08.206Z,102712.02
2019-04-01T11:22:37.356Z,102709.79
2019-04-01T11:25:06.462Z,102706.49
2019-04-01T11:27:35.722Z,102712.00
2019-04-01T11:30:05.487Z,102701.78
2019-04-01T11:32:34.532Z,102706.23
2019-04-01T11:35:03.313Z,102692.44
2019-04-01T11:37:32.234Z,102693.20
2019-04-01T11:40:01.106Z,102683.84
2019-04-01T11:42:30.463Z,102684.72
2019-04-01T11:44:59.182Z,102681.88
2019-04-01T11:47:28.232Z,102683.87
2019-04-01T11:49:57.502Z,102676.42
2019-04-01T11:52:26.181Z,102669.77
2019-04-01T11:54:55.066Z,102663.92
2019-04-01T11:57:24.058Z,102659.03
2019-04-01T11:59:53.380Z,102656.80
2019-04-01T12:02:22.031Z,102650.45
2019-04-01T12:04:52.804Z,102647.81
2019-04-01T12:07:21.981Z,102648.91
2019-04-01T12:09:52.397Z,102650.83
2019-04-01T12:12:23.911Z,102641.25
2019-04-01T12:14:52.446Z,102633.47
2019-04-01T12:17:21.437Z,102646.53
2019-04-01T12:19:53.174Z,102633.69
2019-04-01T12:22:20.887Z,102630.01
2019-04-01T12:24:50.269Z,102634.39
2019-04-01T12:27:19.584Z,102635.91
2019-04-01T12:29:48.486Z,102633.31
2019-04-01T12:32:17.786Z,102633.19
2019-04-01T12:34:46.875Z,102628.72
2019-04-01T12:37:16.267Z,102616.67
2019-04-01T12:39:47.571Z,102615.59
2019-04-01T12:42:16.784Z,102614.16
2019-04-01T12:44:46.306Z,102615.92
2019-04-01T12:47:15.009Z,102610.90
2019-04-01T12:49:43.722Z,102614.73
2019-04-01T12:52:13.081Z,102604.62
2019-04-01T12:54:42.074Z,102594.27
2019-04-01T12:57:11.076Z,102582.72
2019-04-01T12:59:39.734Z,102583.77
2019-04-01T13:02:08.954Z,102578.08
2019-04-01T13:04:37.856Z,102578.73
2019-04-01T13:07:06.858Z,102580.03
2019-04-01T13:09:35.483Z,102571.41
2019-04-01T13:12:04.933Z,102565.57
2019-04-01T13:14:34.234Z,102562.30
2019-04-01T13:17:02.866Z,102567.91
2019-04-01T13:19:31.505Z,102561.53
2019-04-01T13:22:00.496Z,102555.47
2019-04-01T13:24:29.395Z,102545.25
2019-04-01T13:27:00.182Z,102538.17
2019-04-01T13:29:28.734Z,102541.32
2019-04-01T13:32:00.454Z,102540.20
2019-04-01T13:34:28.435Z,102531.21
2019-04-01T13:36:57.327Z,102528.39
2019-04-01T13:39:25.998Z,102525.67
2019-04-01T13:41:56.316Z,102516.84
2019-04-01T13:44:36.016Z,102509.32
2019-04-01T13:46:56.060Z,102501.59
2019-04-01T13:49:25.100Z,102501.06
2019-04-01T13:51:54.364Z,102496.94
2019-04-01T13:54:22.996Z,102488.88
2019-04-01T13:56:52.244Z,102485.43
2019-04-01T13:59:21.549Z,102480.80
2019-04-01T14:01:50.833Z,102479.11
2019-04-01T14:04:20.145Z,102471.84
2019-04-01T14:06:49.548Z,102474.30
2019-04-01T14:09:18.179Z,102471.25
2019-04-01T14:11:46.846Z,102466.23
2019-04-01T14:14:16.120Z,102454.92
2019-04-01T14:16:45.528Z,102450.25
2019-04-01T14:19:14.420Z,102447.05
2019-04-01T14:21:43.617Z,102446.59
2019-04-01T14:24:12.516Z,102433.36
2019-04-01T14:26:41.508Z,102429.58
2019-04-01T14:29:10.209Z,102425.97
2019-04-01T14:31:39.489Z,102424.91
2019-04-01T14:34:13.386Z,102411.59
2019-04-01T14:36:38.927Z,102404.83
2019-04-01T14:39:07.699Z,102404.84
2019-04-01T14:41:36.896Z,102401.39
2019-04-01T14:44:05.713Z,102403.50
2019-04-01T14:46:34.786Z,102401.09
2019-04-01T14:49:03.787Z,102395.93
2019-04-01T14:51:32.795Z,102387.98
2019-04-01T14:54:01.763Z,102386.67
2019-04-01T14:56:30.760Z,102386.08
2019-04-01T14:58:59.655Z,102381.73
2019-04-01T15:01:30.183Z,102378.62
2019-04-01T15:03:59.491Z,102384.30
2019-04-01T15:06:28.472Z,102374.81
2019-04-01T15:08:57.100Z,102367.98
2019-04-01T15:11:26.051Z,102368.39
2019-04-01T15:13:54.669Z,102364.70
2019-04-01T15:16:23.940Z,102353.34
2019-04-01T15:18:53.137Z,102355.21
2019-04-01T15:21:22.247Z,102349.08
2019-04-01T15:23:53.262Z,102347.52
2019-04-01T15:26:21.799Z,102340.58
2019-04-01T15:28:50.417Z,102337.59
2019-04-01T15:31:19.364Z,102323.12
2019-04-01T15:33:48.332Z,102324.01
2019-04-01T15:36:17.629Z,102330.91
2019-04-01T15:38:46.930Z,102320.20
2019-04-01T15:41:16.229Z,102319.92
2019-04-01T15:43:45.539Z,102315.54
2019-04-01T15:46:14.197Z,102314.05
2019-04-01T15:48:43.110Z,102309.13
2019-04-01T15:51:12.421Z,102307.03
2019-04-01T15:53:41.408Z,102297.70
2019-04-01T15:56:10.705Z,102300.42
2019-04-01T15:58:40.156Z,102281.41
2019-04-01T16:01:08.971Z,102282.02
2019-04-01T16:03:38.306Z,102281.94
2019-04-01T16:06:07.672Z,102283.31
2019-04-01T16:08:36.617Z,102276.19
2019-04-01T16:11:06.099Z,102271.61
2019-04-01T16:13:35.648Z,102279.55
2019-04-01T16:16:04.602Z,102274.47
2019-04-01T16:18:33.612Z,102279.92
2019-04-01T16:27:43.023Z,102253.41
2019-04-01T16:30:12.231Z,102251.25
2019-04-01T16:32:40.875Z,102254.29
2019-04-01T16:35:09.721Z,102246.33
2019-04-01T16:37:38.377Z,102245.61
2019-04-01T16:40:07.180Z,102245.91
2019-04-01T16:42:35.802Z,102251.22
2019-04-01T16:45:06.326Z,102248.48
2019-04-01T16:47:35.334Z,102243.23
2019-04-01T16:50:05.330Z,102238.79
2019-04-01T16:52:33.926Z,102235.79
2019-04-01T16:55:04.747Z,102238.39
2019-04-01T16:57:34.103Z,102244.70
2019-04-01T17:00:05.064Z,102240.61
2019-04-01T17:02:33.853Z,102241.91
2019-04-01T17:05:02.521Z,102241.81
2019-04-01T17:07:31.381Z,102244.70
2019-04-01T17:10:00.044Z,102241.89
2019-04-01T17:12:28.756Z,102243.83
2019-04-01T17:14:57.359Z,102237.47
2019-04-01T17:17:26.542Z,102242.33
2019-04-01T17:19:55.467Z,102237.97
2019-04-01T17:22:24.322Z,102243.23
2019-04-01T17:24:52.993Z,102236.24
2019-04-01T17:27:21.706Z,102244.38
2019-04-01T17:29:50.319Z,102243.58
2019-04-01T17:32:19.150Z,102242.05
2019-04-01T17:34:48.158Z,102245.05
2019-04-01T17:37:17.670Z,102247.62
2019-04-01T17:39:46.672Z,102243.10
2019-04-01T17:42:16.918Z,102243.67
2019-04-01T17:44:45.875Z,102243.55
2019-04-01T17:47:14.868Z,102250.00
2019-04-01T17:49:43.685Z,102240.06
2019-04-01T17:52:12.512Z,102242.44
2019-04-01T17:54:41.215Z,102233.67
2019-04-01T17:57:09.819Z,102242.80
2019-04-01T17:59:38.524Z,102237.39
2019-04-01T18:02:11.670Z,102231.83
2019-04-01T18:04:40.900Z,102221.47
2019-04-01T18:07:09.620Z,102221.47
2019-04-01T18:09:38.563Z,102233.45
2019-04-01T18:12:07.193Z,102236.81
2019-04-01T18:14:35.828Z,102230.56
2019-04-01T18:17:04.845Z,102244.19
2019-04-01T18:19:33.457Z,102243.17
2019-04-01T18:22:02.087Z,102243.55
2019-04-01T18:24:30.726Z,102242.50
2019-04-01T18:27:00.018Z,102249.64
2019-04-01T18:29:29.199Z,102242.50
2019-04-01T18:31:59.094Z,102241.92
2019-04-01T18:34:28.098Z,102240.53
2019-04-01T18:36:57.197Z,102238.52
2019-04-01T18:39:29.716Z,102241.15
2019-04-01T18:41:56.799Z,102250.62
2019-04-01T18:44:25.858Z,102247.04
2019-04-01T18:46:54.441Z,102244.75
2019-04-01T18:49:23.402Z,102233.91
2019-04-01T18:51:52.806Z,102239.91
2019-04-01T18:54:21.457Z,102231.95
2019-04-01T18:56:50.931Z,102232.75
2019-04-01T18:59:19.784Z,102230.81
2019-04-01T19:01:51.314Z,102236.62
2019-04-01T19:04:20.016Z,102234.45
2019-04-01T19:06:49.899Z,102229.77
2019-04-01T19:09:19.043Z,102230.30
2019-04-01T19:11:47.927Z,102241.69
2019-04-01T19:14:16.946Z,102241.29
2019-04-01T19:17:15.843Z,102238.05
2019-04-01T19:19:44.833Z,102241.63
2019-04-01T19:22:13.544Z,102241.67
2019-04-01T19:24:42.596Z,102237.61
2019-04-01T19:27:11.202Z,102241.07
2019-04-01T19:29:42.903Z,102234.20
